createdAt,value
2018-04-13T00:00:03.059Z,1003.49
2018-04-13T00:01:02.986Z,1003.52
2018-04-13T00:02:03.096Z,1003.51
2018-04-13T00:03:02.981Z,1003.53
2018-04-13T00:04:02.982Z,1003.54
2018-04-13T00:05:03.045Z,1003.56
2018-04-13T00:06:03.042Z,1003.53
2018-04-13T00:07:03.020Z,1003.54
2018-04-13T00:08:03.101Z,1003.56
2018-04-13T00:09:03.009Z,1003.55
2018-04-13T00:10:02.989Z,1003.6
2018-04-13T00:11:02.975Z,1003.57
2018-04-13T00:12:03.163Z,1003.57
2018-04-13T00:13:02.985Z,1003.57
2018-04-13T00:14:02.968Z,1003.54
2018-04-13T00:15:02.980Z,1003.56
2018-04-13T00:16:02.974Z,1003.55
2018-04-13T00:17:02.990Z,1003.56
2018-04-13T00:18:03.044Z,1003.55
2018-04-13T00:19:02.959Z,1003.52
2018-04-13T00:20:02.973Z,1003.52
2018-04-13T00:21:02.961Z,1003.56
2018-04-13T00:22:02.992Z,1003.5
2018-04-13T00:23:02.970Z,1003.49
2018-04-13T00:24:02.982Z,1003.56
2018-04-13T00:25:02.972Z,1003.58
2018-04-13T00:26:02.952Z,1003.58
2018-04-13T00:27:03.008Z,1003.55
2018-04-13T00:28:02.962Z,1003.55
2018-04-13T00:29:02.949Z,1003.59
2018-04-13T00:30:02.937Z,1003.56
2018-04-13T00:31:02.961Z,1003.56
2018-04-13T00:32:02.984Z,1003.59
2018-04-13T00:33:02.940Z,1003.56
2018-04-13T00:34:02.928Z,1003.6
2018-04-13T00:35:02.939Z,1003.58
2018-04-13T00:36:02.943Z,1003.58
2018-04-13T00:37:02.965Z,1003.56
2018-04-13T00:38:02.955Z,1003.6
2018-04-13T00:39:02.925Z,1003.57
2018-04-13T00:40:02.925Z,1003.65
2018-04-13T00:41:02.974Z,1003.62
2018-04-13T00:42:03.099Z,1003.67
2018-04-13T00:43:02.930Z,1003.67
2018-04-13T00:44:02.944Z,1003.65
2018-04-13T00:45:02.931Z,1003.66
2018-04-13T00:46:02.938Z,1003.69
2018-04-13T00:47:03.058Z,1003.68
2018-04-13T00:48:02.922Z,1003.73
2018-04-13T00:49:02.952Z,1003.72
2018-04-13T00:50:02.935Z,1003.72
2018-04-13T00:51:02.916Z,1003.76
2018-04-13T00:52:02.948Z,1003.75
2018-04-13T00:53:02.913Z,1003.74
2018-04-13T00:54:02.927Z,1003.75
2018-04-13T00:55:02.943Z,1003.76
2018-04-13T00:56:02.948Z,1003.8
2018-04-13T00:57:02.992Z,1003.83
2018-04-13T00:58:02.914Z,1003.82
2018-04-13T00:59:02.952Z,1003.84
2018-04-13T01:00:02.918Z,1003.86
2018-04-13T01:01:02.916Z,1003.85
2018-04-13T01:02:02.988Z,1003.86
2018-04-13T01:03:02.896Z,1003.82
2018-04-13T01:04:03.164Z,1003.82
2018-04-13T01:05:02.896Z,1003.8
2018-04-13T01:06:02.887Z,1003.85
2018-04-13T01:07:02.898Z,1003.85
2018-04-13T01:08:02.931Z,1003.88
2018-04-13T01:09:02.903Z,1003.88
2018-04-13T01:10:02.887Z,1003.87
2018-04-13T01:11:02.888Z,1003.87
2018-04-13T01:12:02.902Z,1003.84
2018-04-13T01:13:02.882Z,1003.88
2018-04-13T01:14:02.971Z,1003.88
2018-04-13T01:15:02.972Z,1003.88
2018-04-13T01:16:02.882Z,1003.89
2018-04-13T01:17:02.919Z,1003.85
2018-04-13T01:18:02.865Z,1003.88
2018-04-13T01:19:03.141Z,1003.86
2018-04-13T01:20:02.868Z,1003.83
2018-04-13T01:21:02.939Z,1003.87
2018-04-13T01:22:02.921Z,1003.89
2018-04-13T01:23:02.903Z,1003.89
2018-04-13T01:24:02.903Z,1003.93
2018-04-13T01:25:02.881Z,1003.92
2018-04-13T01:26:02.895Z,1003.91
2018-04-13T01:27:02.896Z,1003.93
2018-04-13T01:28:02.918Z,1003.89
2018-04-13T01:29:02.841Z,1003.88
2018-04-13T01:30:02.895Z,1003.85
2018-04-13T01:31:02.854Z,1003.82
2018-04-13T01:32:02.854Z,1003.88
2018-04-13T01:33:02.872Z,1003.87
2018-04-13T01:34:02.871Z,1003.87
2018-04-13T01:35:02.859Z,1003.87
2018-04-13T01:36:02.847Z,1003.86
2018-04-13T01:37:02.986Z,1003.87
2018-04-13T01:38:02.851Z,1003.88
2018-04-13T01:39:02.858Z,1003.88
2018-04-13T01:40:02.884Z,1003.9
2018-04-13T01:41:02.835Z,1003.88
2018-04-13T01:42:02.858Z,1003.91
2018-04-13T01:43:02.834Z,1003.86
2018-04-13T01:44:02.832Z,1003.84
2018-04-13T01:45:02.846Z,1003.83
2018-04-13T01:46:02.854Z,1003.84
2018-04-13T01:47:02.888Z,1003.85
2018-04-13T01:48:02.839Z,1003.81
2018-04-13T01:49:02.851Z,1003.84
2018-04-13T01:50:02.883Z,1003.82
2018-04-13T01:51:02.863Z,1003.85
2018-04-13T01:52:02.843Z,1003.74
2018-04-13T01:53:02.831Z,1003.77
2018-04-13T01:54:02.824Z,1003.75
2018-04-13T01:55:02.894Z,1003.76
2018-04-13T01:56:02.823Z,1003.75
2018-04-13T01:57:02.808Z,1003.77
2018-04-13T01:58:02.884Z,1003.75
2018-04-13T01:59:02.824Z,1003.79
2018-04-13T02:00:02.917Z,1003.77
2018-04-13T02:01:02.825Z,1003.75
2018-04-13T02:02:02.821Z,1003.79
2018-04-13T02:03:02.901Z,1003.78
2018-04-13T02:04:02.801Z,1003.85
2018-04-13T02:05:02.915Z,1003.8
2018-04-13T02:06:02.802Z,1003.81
2018-04-13T02:07:02.815Z,1003.78
2018-04-13T02:08:02.878Z,1003.81
2018-04-13T02:09:02.820Z,1003.79
2018-04-13T02:10:02.826Z,1003.81
2018-04-13T02:11:02.843Z,1003.82
2018-04-13T02:12:02.821Z,1003.83
2018-04-13T02:13:02.792Z,1003.83
2018-04-13T02:14:02.934Z,1003.84
2018-04-13T02:15:02.804Z,1003.82
2018-04-13T02:16:02.801Z,1003.81
2018-04-13T02:17:02.811Z,1003.79
2018-04-13T02:18:02.779Z,1003.79
2018-04-13T02:19:02.777Z,1003.78
2018-04-13T02:20:02.776Z,1003.83
2018-04-13T02:21:02.783Z,1003.81
2018-04-13T02:22:02.801Z,1003.77
2018-04-13T02:23:02.788Z,1003.81
2018-04-13T02:24:02.875Z,1003.83
2018-04-13T02:25:02.917Z,1003.81
2018-04-13T02:26:03.124Z,1003.83
2018-04-13T02:27:02.783Z,1003.8
2018-04-13T02:28:02.780Z,1003.85
2018-04-13T02:29:02.810Z,1003.81
2018-04-13T02:30:02.756Z,1003.86
2018-04-13T02:31:02.785Z,1003.84
2018-04-13T02:32:02.773Z,1003.85
2018-04-13T02:33:02.796Z,1003.9
2018-04-13T02:34:02.925Z,1003.9
2018-04-13T02:35:02.792Z,1003.85
2018-04-13T02:36:02.769Z,1003.83
2018-04-13T02:37:02.768Z,1003.87
2018-04-13T02:38:02.775Z,1003.88
2018-04-13T02:39:02.790Z,1003.89
2018-04-13T02:40:02.769Z,1003.9
2018-04-13T02:41:02.776Z,1003.9
2018-04-13T02:42:02.767Z,1003.9
2018-04-13T02:43:02.757Z,1003.91
2018-04-13T02:44:02.773Z,1003.9
2018-04-13T02:45:02.749Z,1003.95
2018-04-13T02:46:02.758Z,1003.94
2018-04-13T02:47:02.738Z,1004
2018-04-13T02:48:02.746Z,1004.01
2018-04-13T02:49:02.763Z,1004.03
2018-04-13T02:50:02.761Z,1004.01
2018-04-13T02:51:02.730Z,1004.01
2018-04-13T02:52:02.735Z,1004.02
2018-04-13T02:53:02.736Z,1004.02
2018-04-13T02:54:02.753Z,1004.05
2018-04-13T02:55:02.723Z,1004
2018-04-13T02:56:02.720Z,1003.98
2018-04-13T02:57:02.737Z,1003.96
2018-04-13T02:58:02.732Z,1004
2018-04-13T02:59:02.962Z,1004.03
2018-04-13T03:00:02.730Z,1004
2018-04-13T03:01:02.735Z,1003.96
2018-04-13T03:02:02.721Z,1003.98
2018-04-13T03:03:02.728Z,1003.99
2018-04-13T03:04:02.736Z,1003.98
2018-04-13T03:05:02.729Z,1003.98
2018-04-13T03:06:02.710Z,1004.03
2018-04-13T03:07:02.700Z,1004.05
2018-04-13T03:08:02.716Z,1004.03
2018-04-13T03:09:02.723Z,1004
2018-04-13T03:10:02.707Z,1003.98
2018-04-13T03:11:02.710Z,1003.96
2018-04-13T03:12:02.703Z,1004
2018-04-13T03:13:02.730Z,1004.01
2018-04-13T03:14:02.753Z,1003.99
2018-04-13T03:15:02.694Z,1004.02
2018-04-13T03:16:02.691Z,1004.02
2018-04-13T03:17:02.697Z,1004.03
2018-04-13T03:18:02.699Z,1004.02
2018-04-13T03:19:02.731Z,1004.03
2018-04-13T03:20:02.694Z,1004.03
2018-04-13T03:21:02.681Z,1004.04
2018-04-13T03:22:02.682Z,1004.09
2018-04-13T03:23:02.678Z,1004.11
2018-04-13T03:24:02.706Z,1004.16
2018-04-13T03:25:02.704Z,1004.16
2018-04-13T03:26:02.775Z,1004.15
2018-04-13T03:27:02.697Z,1004.17
2018-04-13T03:28:02.691Z,1004.18
2018-04-13T03:29:02.710Z,1004.21
2018-04-13T03:30:02.670Z,1004.22
2018-04-13T03:31:02.709Z,1004.2
2018-04-13T03:32:02.778Z,1004.22
2018-04-13T03:33:02.693Z,1004.22
2018-04-13T03:34:02.841Z,1004.24
2018-04-13T03:35:02.695Z,1004.22
2018-04-13T03:36:02.668Z,1004.24
2018-04-13T03:37:02.684Z,1004.27
2018-04-13T03:38:02.697Z,1004.3
2018-04-13T03:39:02.801Z,1004.26
2018-04-13T03:40:02.667Z,1004.24
2018-04-13T03:41:02.665Z,1004.24
2018-04-13T03:42:02.669Z,1004.23
2018-04-13T03:43:02.719Z,1004.25
2018-04-13T03:44:02.654Z,1004.22
2018-04-13T03:45:02.662Z,1004.24
2018-04-13T03:46:02.649Z,1004.27
2018-04-13T03:47:02.653Z,1004.23
2018-04-13T03:48:02.649Z,1004.23
2018-04-13T03:49:02.646Z,1004.27
2018-04-13T03:50:02.705Z,1004.28
2018-04-13T03:51:02.646Z,1004.3
2018-04-13T03:52:02.645Z,1004.26
2018-04-13T03:53:02.696Z,1004.28
2018-04-13T03:54:02.661Z,1004.3
2018-04-13T03:55:02.656Z,1004.32
2018-04-13T03:56:02.628Z,1004.3
2018-04-13T03:57:02.697Z,1004.32
2018-04-13T03:58:02.629Z,1004.36
2018-04-13T03:59:02.735Z,1004.34
2018-04-13T04:00:02.663Z,1004.39
2018-04-13T04:01:02.617Z,1004.47
2018-04-13T04:02:02.776Z,1004.4
2018-04-13T04:03:02.631Z,1004.42
2018-04-13T04:04:02.725Z,1004.44
2018-04-13T04:05:02.650Z,1004.46
2018-04-13T04:06:02.651Z,1004.47
2018-04-13T04:07:02.607Z,1004.48
2018-04-13T04:08:02.625Z,1004.49
2018-04-13T04:09:02.664Z,1004.55
2018-04-13T04:10:02.647Z,1004.51
2018-04-13T04:11:02.748Z,1004.53
2018-04-13T04:12:02.609Z,1004.56
2018-04-13T04:13:02.629Z,1004.57
2018-04-13T04:14:02.603Z,1004.58
2018-04-13T04:15:02.631Z,1004.61
2018-04-13T04:16:02.669Z,1004.64
2018-04-13T04:17:02.661Z,1004.68
2018-04-13T04:18:02.719Z,1004.71
2018-04-13T04:19:02.606Z,1004.73
2018-04-13T04:20:02.602Z,1004.73
2018-04-13T04:21:02.735Z,1004.79
2018-04-13T04:22:02.721Z,1004.8
2018-04-13T04:23:02.609Z,1004.79
2018-04-13T04:24:02.618Z,1004.85
2018-04-13T04:25:02.608Z,1004.84
2018-04-13T04:26:02.577Z,1004.86
2018-04-13T04:27:02.623Z,1004.82
2018-04-13T04:28:02.934Z,1004.84
2018-04-13T04:29:02.584Z,1004.86
2018-04-13T04:30:02.636Z,1004.88
2018-04-13T04:31:02.586Z,1004.89
2018-04-13T04:32:02.593Z,1004.9
2018-04-13T04:33:02.598Z,1004.91
2018-04-13T04:34:02.607Z,1004.91
2018-04-13T04:35:02.613Z,1004.96
2018-04-13T04:36:02.572Z,1004.92
2018-04-13T04:37:02.565Z,1004.95
2018-04-13T04:38:02.614Z,1004.98
2018-04-13T04:39:02.559Z,1004.97
2018-04-13T04:40:02.587Z,1005.06
2018-04-13T04:41:02.577Z,1005.08
2018-04-13T04:42:02.562Z,1005.11
2018-04-13T04:43:02.592Z,1005.15
2018-04-13T04:44:02.599Z,1005.12
2018-04-13T04:45:02.676Z,1005.17
2018-04-13T04:46:02.562Z,1005.23
2018-04-13T04:47:02.560Z,1005.25
2018-04-13T04:48:02.582Z,1005.33
2018-04-13T04:49:02.542Z,1005.34
2018-04-13T04:50:02.635Z,1005.39
2018-04-13T04:51:02.541Z,1005.36
2018-04-13T04:52:02.542Z,1005.44
2018-04-13T04:53:02.582Z,1005.43
2018-04-13T04:54:02.545Z,1005.42
2018-04-13T04:55:02.541Z,1005.47
2018-04-13T04:56:02.540Z,1005.43
2018-04-13T04:57:02.541Z,1005.45
2018-04-13T04:58:02.622Z,1005.47
2018-04-13T04:59:02.538Z,1005.45
2018-04-13T05:00:02.659Z,1005.48
2018-04-13T05:01:02.532Z,1005.47
2018-04-13T05:02:02.532Z,1005.53
2018-04-13T05:03:02.549Z,1005.56
2018-04-13T05:04:02.537Z,1005.55
2018-04-13T05:05:02.567Z,1005.59
2018-04-13T05:06:02.536Z,1005.66
2018-04-13T05:07:02.552Z,1005.72
2018-04-13T05:08:02.704Z,1005.73
2018-04-13T05:09:02.541Z,1005.75
2018-04-13T05:10:02.631Z,1005.8
2018-04-13T05:11:02.514Z,1005.82
2018-04-13T05:12:02.593Z,1005.82
2018-04-13T05:13:02.545Z,1005.79
2018-04-13T05:14:02.513Z,1005.8
2018-04-13T05:15:02.539Z,1005.82
2018-04-13T05:16:02.605Z,1005.78
2018-04-13T05:17:02.519Z,1005.8
2018-04-13T05:18:02.511Z,1005.79
2018-04-13T05:19:02.513Z,1005.83
2018-04-13T05:20:02.530Z,1005.82
2018-04-13T05:21:02.540Z,1005.84
2018-04-13T05:22:02.517Z,1005.84
2018-04-13T05:23:02.510Z,1005.83
2018-04-13T05:24:02.637Z,1005.77
2018-04-13T05:25:02.611Z,1005.77
2018-04-13T05:26:02.499Z,1005.79
2018-04-13T05:27:02.490Z,1005.77
2018-04-13T05:28:02.506Z,1005.77
2018-04-13T05:29:02.512Z,1005.74
2018-04-13T05:30:02.508Z,1005.79
2018-04-13T05:31:02.610Z,1005.77
2018-04-13T05:32:02.550Z,1005.77
2018-04-13T05:33:02.486Z,1005.78
2018-04-13T05:34:02.502Z,1005.77
2018-04-13T05:35:02.487Z,1005.81
2018-04-13T05:36:02.483Z,1005.83
2018-04-13T05:37:02.479Z,1005.84
2018-04-13T05:38:02.473Z,1005.84
2018-04-13T05:39:02.475Z,1005.84
2018-04-13T05:40:02.565Z,1005.84
2018-04-13T05:41:02.599Z,1005.84
2018-04-13T05:42:02.482Z,1005.86
2018-04-13T05:43:02.489Z,1005.86
2018-04-13T05:44:02.463Z,1005.83
2018-04-13T05:45:02.456Z,1005.83
2018-04-13T05:46:02.556Z,1005.82
2018-04-13T05:47:02.466Z,1005.79
2018-04-13T05:48:02.508Z,1005.8
2018-04-13T05:49:02.460Z,1005.8
2018-04-13T05:50:02.459Z,1005.81
2018-04-13T05:51:02.473Z,1005.83
2018-04-13T05:52:02.459Z,1005.79
2018-04-13T05:53:02.483Z,1005.81
2018-04-13T05:54:02.454Z,1005.83
2018-04-13T05:55:02.448Z,1005.85
2018-04-13T05:56:02.446Z,1005.89
2018-04-13T05:57:02.457Z,1005.87
2018-04-13T05:58:02.657Z,1005.85
2018-04-13T05:59:02.440Z,1005.83
2018-04-13T06:00:02.450Z,1005.83
2018-04-13T06:01:02.444Z,1005.85
2018-04-13T06:02:02.452Z,1005.84
2018-04-13T06:03:02.458Z,1005.88
2018-04-13T06:04:02.487Z,1005.89
2018-04-13T06:05:02.540Z,1005.88
2018-04-13T06:06:02.507Z,1005.85
2018-04-13T06:07:02.437Z,1005.87
2018-04-13T06:08:02.450Z,1005.91
2018-04-13T06:09:02.430Z,1005.93
2018-04-13T06:10:02.554Z,1005.96
2018-04-13T06:11:02.435Z,1006.03
2018-04-13T06:12:02.425Z,1006.03
2018-04-13T06:13:02.449Z,1006.09
2018-04-13T06:14:02.423Z,1006.09
2018-04-13T06:15:02.422Z,1006.07
2018-04-13T06:16:02.412Z,1006.13
2018-04-13T06:17:02.420Z,1006.12
2018-04-13T06:18:02.456Z,1006.11
2018-04-13T06:19:02.550Z,1006.05
2018-04-13T06:20:02.430Z,1006.05
2018-04-13T06:21:02.423Z,1006.09
2018-04-13T06:22:02.407Z,1006.08
2018-04-13T06:23:02.402Z,1006.11
2018-04-13T06:24:02.409Z,1006.09
2018-04-13T06:25:02.481Z,1006.06
2018-04-13T06:26:02.423Z,1006.05
2018-04-13T06:27:02.406Z,1006.07
2018-04-13T06:28:02.720Z,1006.07
2018-04-13T06:29:02.444Z,1006.12
2018-04-13T06:30:02.405Z,1006.11
2018-04-13T06:31:02.392Z,1006.16
2018-04-13T06:32:02.396Z,1006.14
2018-04-13T06:33:02.429Z,1006.16
2018-04-13T06:34:02.396Z,1006.19
2018-04-13T06:35:02.461Z,1006.17
2018-04-13T06:36:02.401Z,1006.26
2018-04-13T06:37:02.404Z,1006.26
2018-04-13T06:38:02.412Z,1006.21
2018-04-13T06:39:02.394Z,1006.27
2018-04-13T06:40:02.408Z,1006.26
2018-04-13T06:41:02.390Z,1006.26
2018-04-13T06:42:02.498Z,1006.27
2018-04-13T06:43:02.463Z,1006.3
2018-04-13T06:44:02.438Z,1006.3
2018-04-13T06:45:02.400Z,1006.3
2018-04-13T06:46:02.439Z,1006.31
2018-04-13T06:47:02.397Z,1006.29
2018-04-13T06:48:02.389Z,1006.27
2018-04-13T06:49:02.385Z,1006.29
2018-04-13T06:50:02.367Z,1006.29
2018-04-13T06:51:02.381Z,1006.3
2018-04-13T06:52:02.369Z,1006.31
2018-04-13T06:53:02.380Z,1006.34
2018-04-13T06:54:02.355Z,1006.36
2018-04-13T06:55:02.362Z,1006.39
2018-04-13T06:56:02.364Z,1006.42
2018-04-13T06:57:02.382Z,1006.41
2018-04-13T06:58:02.415Z,1006.41
2018-04-13T06:59:02.357Z,1006.4
2018-04-13T07:00:02.380Z,1006.45
2018-04-13T07:01:02.395Z,1006.48
2018-04-13T07:02:02.360Z,1006.51
2018-04-13T07:03:02.372Z,1006.53
2018-04-13T07:04:02.391Z,1006.55
2018-04-13T07:05:02.384Z,1006.56
2018-04-13T07:06:02.356Z,1006.6
2018-04-13T07:07:02.380Z,1006.61
2018-04-13T07:08:02.381Z,1006.61
2018-04-13T07:09:02.356Z,1006.61
2018-04-13T07:10:02.352Z,1006.59
2018-04-13T07:11:02.368Z,1006.58
2018-04-13T07:12:02.389Z,1006.56
2018-04-13T07:13:02.359Z,1006.57
2018-04-13T07:14:02.347Z,1006.59
2018-04-13T07:15:02.354Z,1006.63
2018-04-13T07:16:02.345Z,1006.65
2018-04-13T07:17:02.365Z,1006.65
2018-04-13T07:18:02.379Z,1006.62
2018-04-13T07:19:02.416Z,1006.7
2018-04-13T07:20:02.338Z,1006.69
2018-04-13T07:21:02.363Z,1006.69
2018-04-13T07:22:02.463Z,1006.7
2018-04-13T07:23:02.338Z,1006.73
2018-04-13T07:24:02.328Z,1006.73
2018-04-13T07:25:02.765Z,1006.75
2018-04-13T07:26:02.296Z,1006.86
2018-04-13T07:27:02.358Z,1006.8
2018-04-13T07:28:02.353Z,1006.81
2018-04-13T07:29:02.320Z,1006.81
2018-04-13T07:30:02.378Z,1006.79
2018-04-13T07:31:02.318Z,1006.81
2018-04-13T07:32:02.322Z,1006.79
2018-04-13T07:33:02.344Z,1006.84
2018-04-13T07:34:02.322Z,1006.84
2018-04-13T07:35:02.320Z,1006.87
2018-04-13T07:36:02.334Z,1006.9
2018-04-13T07:37:02.324Z,1006.94
2018-04-13T07:38:02.403Z,1006.96
2018-04-13T07:39:02.419Z,1006.95
2018-04-13T07:40:02.449Z,1006.99
2018-04-13T07:41:02.313Z,1007
2018-04-13T07:42:02.331Z,1007.01
2018-04-13T07:43:02.298Z,1007.02
2018-04-13T07:44:02.320Z,1007.07
2018-04-13T07:45:02.423Z,1007.07
2018-04-13T07:46:02.310Z,1007.1
2018-04-13T07:47:02.419Z,1007.14
2018-04-13T07:48:02.375Z,1007.16
2018-04-13T07:49:02.299Z,1007.23
2018-04-13T07:50:02.336Z,1007.21
2018-04-13T07:51:02.313Z,1007.24
2018-04-13T07:52:02.318Z,1007.25
2018-04-13T07:53:02.283Z,1007.3
2018-04-13T07:54:02.286Z,1007.33
2018-04-13T07:55:02.280Z,1007.37
2018-04-13T07:56:02.278Z,1007.44
2018-04-13T07:57:02.303Z,1007.47
2018-04-13T07:58:03.559Z,1007.52
2018-04-13T07:59:02.383Z,1007.54
2018-04-13T08:00:02.282Z,1007.58
2018-04-13T08:01:02.616Z,1007.6
2018-04-13T08:02:02.298Z,1007.64
2018-04-13T08:03:02.264Z,1007.67
2018-04-13T08:04:02.254Z,1007.7
2018-04-13T08:05:03.385Z,1007.7
2018-04-13T08:06:02.297Z,1007.72
2018-04-13T08:07:02.285Z,1007.74
2018-04-13T08:08:02.258Z,1007.72
2018-04-13T08:09:02.310Z,1007.75
2018-04-13T08:10:02.252Z,1007.81
2018-04-13T08:11:02.262Z,1007.86
2018-04-13T08:12:02.286Z,1007.89
2018-04-13T08:13:03.995Z,1007.9
2018-04-13T08:14:02.706Z,1007.89
2018-04-13T08:15:02.388Z,1007.92
2018-04-13T08:16:02.324Z,1007.94
2018-04-13T08:17:02.284Z,1007.95
2018-04-13T08:18:02.357Z,1007.98
2018-04-13T08:19:02.240Z,1008.01
2018-04-13T08:20:02.251Z,1008.03
2018-04-13T08:21:02.232Z,1008.06
2018-04-13T08:22:02.479Z,1008.09
2018-04-13T08:23:02.243Z,1008.12
2018-04-13T08:24:02.323Z,1008.12
2018-04-13T08:25:02.302Z,1008.22
2018-04-13T08:26:02.237Z,1008.2
2018-04-13T08:27:02.266Z,1008.31
2018-04-13T08:28:02.337Z,1008.3
2018-04-13T08:29:02.227Z,1008.32
2018-04-13T08:30:02.387Z,1008.37
2018-04-13T08:31:02.226Z,1008.37
2018-04-13T08:32:02.278Z,1008.37
2018-04-13T08:33:02.222Z,1008.31
2018-04-13T08:34:02.209Z,1008.27
2018-04-13T08:35:02.304Z,1008.3
2018-04-13T08:36:02.227Z,1008.3
2018-04-13T08:37:03.826Z,1008.28
2018-04-13T08:38:02.299Z,1008.29
2018-04-13T08:39:02.231Z,1008.3
2018-04-13T08:40:02.220Z,1008.28
2018-04-13T08:41:02.227Z,1008.27
2018-04-13T08:42:02.209Z,1008.31
2018-04-13T08:43:02.307Z,1008.32
2018-04-13T08:44:02.214Z,1008.36
2018-04-13T08:45:02.218Z,1008.41
2018-04-13T08:46:02.253Z,1008.44
2018-04-13T08:47:02.226Z,1008.48
2018-04-13T08:48:02.201Z,1008.54
2018-04-13T08:49:02.641Z,1008.5
2018-04-13T08:50:02.390Z,1008.55
2018-04-13T08:51:02.215Z,1008.52
2018-04-13T08:52:02.192Z,1008.5
2018-04-13T08:53:02.233Z,1008.57
2018-04-13T08:54:02.233Z,1008.61
2018-04-13T08:55:02.202Z,1008.63
2018-04-13T08:56:02.198Z,1008.71
2018-04-13T08:57:02.192Z,1008.74
2018-04-13T08:58:02.252Z,1008.74
2018-04-13T08:59:02.199Z,1008.75
2018-04-13T09:00:02.209Z,1008.73
2018-04-13T09:01:02.339Z,1008.76
2018-04-13T09:02:02.556Z,1008.77
2018-04-13T09:03:02.191Z,1008.87
2018-04-13T09:04:02.181Z,1008.93
2018-04-13T09:05:02.171Z,1008.96
2018-04-13T09:06:02.166Z,1008.98
2018-04-13T09:07:02.200Z,1009.05
2018-04-13T09:08:02.185Z,1009.09
2018-04-13T09:09:02.153Z,1009.17
2018-04-13T09:10:02.172Z,1009.17
2018-04-13T09:11:02.197Z,1009.22
2018-04-13T09:12:02.189Z,1009.2
2018-04-13T09:13:02.266Z,1009.2
2018-04-13T09:14:02.174Z,1009.22
2018-04-13T09:15:02.164Z,1009.27
2018-04-13T09:16:02.151Z,1009.27
2018-04-13T09:17:02.193Z,1009.28
2018-04-13T09:18:02.255Z,1009.28
2018-04-13T09:19:02.148Z,1009.32
2018-04-13T09:20:02.269Z,1009.35
2018-04-13T09:21:02.161Z,1009.38
2018-04-13T09:22:02.171Z,1009.36
2018-04-13T09:23:02.146Z,1009.39
2018-04-13T09:24:02.180Z,1009.37
2018-04-13T09:25:02.185Z,1009.43
2018-04-13T09:26:02.201Z,1009.42
2018-04-13T09:27:02.180Z,1009.49
2018-04-13T09:28:02.234Z,1009.46
2018-04-13T09:29:02.138Z,1009.5
2018-04-13T09:30:02.132Z,1009.51
2018-04-13T09:31:02.111Z,1009.6
2018-04-13T09:32:02.169Z,1009.58
2018-04-13T09:33:02.152Z,1009.62
2018-04-13T09:34:02.123Z,1009.66
2018-04-13T09:35:02.129Z,1009.67
2018-04-13T09:36:02.267Z,1009.65
2018-04-13T09:37:02.141Z,1009.69
2018-04-13T09:38:02.202Z,1009.73
2018-04-13T09:39:02.123Z,1009.79
2018-04-13T09:40:02.126Z,1009.77
2018-04-13T09:41:02.148Z,1009.79
2018-04-13T09:42:02.119Z,1009.85
2018-04-13T09:43:02.158Z,1009.85
2018-04-13T09:44:02.105Z,1009.91
2018-04-13T09:45:02.103Z,1009.94
2018-04-13T09:46:02.141Z,1009.94
2018-04-13T09:47:02.289Z,1009.95
2018-04-13T09:48:02.124Z,1009.98
2018-04-13T09:49:02.119Z,1010.01
2018-04-13T09:50:03.109Z,1010.03
2018-04-13T09:51:02.223Z,1010.04
2018-04-13T09:52:02.094Z,1010.15
2018-04-13T09:53:02.113Z,1010.09
2018-04-13T09:54:02.090Z,1010.15
2018-04-13T09:55:02.083Z,1010.16
2018-04-13T09:56:02.287Z,1010.26
2018-04-13T09:57:02.083Z,1010.24
2018-04-13T09:58:02.097Z,1010.28
2018-04-13T09:59:02.103Z,1010.32
2018-04-13T10:00:02.072Z,1010.3
2018-04-13T10:01:02.095Z,1010.35
2018-04-13T10:02:02.075Z,1010.34
2018-04-13T10:03:02.068Z,1010.42
2018-04-13T10:04:02.082Z,1010.45
2018-04-13T10:05:02.061Z,1010.44
2018-04-13T10:06:02.068Z,1010.48
2018-04-13T10:07:02.068Z,1010.53
2018-04-13T10:08:02.141Z,1010.56
2018-04-13T10:09:02.070Z,1010.58
2018-04-13T10:10:02.072Z,1010.63
2018-04-13T10:11:02.067Z,1010.65
2018-04-13T10:12:02.080Z,1010.72
2018-04-13T10:13:02.072Z,1010.68
2018-04-13T10:14:02.051Z,1010.75
2018-04-13T10:15:02.054Z,1010.8
2018-04-13T10:16:02.058Z,1010.82
2018-04-13T10:17:02.060Z,1010.85
2018-04-13T10:18:02.058Z,1010.85
2018-04-13T10:19:02.040Z,1010.89
2018-04-13T10:20:02.059Z,1010.88
2018-04-13T10:21:02.046Z,1010.98
2018-04-13T10:22:02.057Z,1010.93
2018-04-13T10:23:02.065Z,1011.01
2018-04-13T10:24:02.072Z,1011
2018-04-13T10:25:02.121Z,1010.99
2018-04-13T10:26:02.169Z,1011.01
2018-04-13T10:27:02.064Z,1011.03
2018-04-13T10:28:02.076Z,1011.05
2018-04-13T10:29:02.084Z,1011.06
2018-04-13T10:30:02.053Z,1011.11
2018-04-13T10:31:02.033Z,1011.08
2018-04-13T10:32:02.053Z,1011.14
2018-04-13T10:33:02.037Z,1011.12
2018-04-13T10:34:02.096Z,1011.14
2018-04-13T10:35:02.041Z,1011.2
2018-04-13T10:36:02.036Z,1011.24
2018-04-13T10:37:02.043Z,1011.28
2018-04-13T10:38:02.065Z,1011.3
2018-04-13T10:39:02.041Z,1011.33
2018-04-13T10:40:02.047Z,1011.33
2018-04-13T10:41:02.009Z,1011.38
2018-04-13T10:42:02.033Z,1011.36
2018-04-13T10:43:02.023Z,1011.42
2018-04-13T10:44:02.092Z,1011.52
2018-04-13T10:45:02.077Z,1011.49
2018-04-13T10:46:02.034Z,1011.49
2018-04-13T10:47:02.022Z,1011.56
2018-04-13T10:48:02.025Z,1011.55
2018-04-13T10:49:02.054Z,1011.6
2018-04-13T10:50:02.039Z,1011.65
2018-04-13T10:51:02.050Z,1011.65
2018-04-13T10:52:02.029Z,1011.66
2018-04-13T10:53:02.028Z,1011.7
2018-04-13T10:54:02.025Z,1011.74
2018-04-13T10:55:02.083Z,1011.73
2018-04-13T10:56:02.010Z,1011.77
2018-04-13T10:57:02.069Z,1011.82
2018-04-13T10:58:02.099Z,1011.81
2018-04-13T10:59:02.051Z,1011.86
2018-04-13T11:00:02.016Z,1011.85
2018-04-13T11:01:02.012Z,1011.89
2018-04-13T11:02:01.991Z,1011.92
2018-04-13T11:03:02.022Z,1011.94
2018-04-13T11:04:01.984Z,1011.93
2018-04-13T11:05:01.999Z,1011.92
2018-04-13T11:06:02.014Z,1011.99
2018-04-13T11:07:01.995Z,1011.99
2018-04-13T11:08:01.980Z,1012.01
2018-04-13T11:09:01.993Z,1012.05
2018-04-13T11:10:02.004Z,1012.01
2018-04-13T11:11:01.989Z,1012.06
2018-04-13T11:12:02.004Z,1012.1
2018-04-13T11:13:01.994Z,1012.08
2018-04-13T11:14:02.343Z,1012.12
2018-04-13T11:15:01.982Z,1012.18
2018-04-13T11:16:01.968Z,1012.22
2018-04-13T11:17:01.954Z,1012.24
2018-04-13T11:18:01.996Z,1012.2
2018-04-13T11:19:01.995Z,1012.21
2018-04-13T11:20:01.983Z,1012.29
2018-04-13T11:21:01.955Z,1012.25
2018-04-13T11:22:01.948Z,1012.28
2018-04-13T11:23:01.949Z,1012.37
2018-04-13T11:24:01.941Z,1012.39
2018-04-13T11:25:01.957Z,1012.39
2018-04-13T11:26:01.990Z,1012.46
2018-04-13T11:27:02.181Z,1012.42
2018-04-13T11:28:01.987Z,1012.41
2018-04-13T11:29:02.006Z,1012.49
2018-04-13T11:30:02.151Z,1012.47
2018-04-13T11:31:01.984Z,1012.5
2018-04-13T11:32:02.062Z,1012.51
2018-04-13T11:33:01.947Z,1012.54
2018-04-13T11:34:01.926Z,1012.56
2018-04-13T11:35:01.941Z,1012.56
2018-04-13T11:36:01.926Z,1012.59
2018-04-13T11:37:02.055Z,1012.62
2018-04-13T11:38:01.958Z,1012.66
2018-04-13T11:39:01.961Z,1012.65
2018-04-13T11:40:01.925Z,1012.67
2018-04-13T11:41:01.959Z,1012.69
2018-04-13T11:42:01.948Z,1012.73
2018-04-13T11:43:01.934Z,1012.79
2018-04-13T11:44:01.942Z,1012.81
2018-04-13T11:45:01.911Z,1012.8
2018-04-13T11:46:01.905Z,1012.86
2018-04-13T11:47:02.037Z,1012.87
2018-04-13T11:48:01.916Z,1012.88
2018-04-13T11:49:01.999Z,1012.88
2018-04-13T11:50:02.118Z,1012.88
2018-04-13T11:51:01.903Z,1012.92
2018-04-13T11:52:01.953Z,1012.93
2018-04-13T11:53:01.902Z,1012.93
2018-04-13T11:54:01.932Z,1012.95
2018-04-13T11:55:01.940Z,1012.97
2018-04-13T11:56:01.930Z,1012.94
2018-04-13T11:57:01.921Z,1013.02
2018-04-13T11:58:01.901Z,1013.04
2018-04-13T11:59:01.960Z,1013.03
2018-04-13T12:00:01.983Z,1013.01
2018-04-13T12:01:01.909Z,1013.07
2018-04-13T12:02:01.907Z,1013.06
2018-04-13T12:03:01.893Z,1013.07
2018-04-13T12:04:01.933Z,1013.12
2018-04-13T12:05:01.899Z,1013.11
2018-04-13T12:06:01.927Z,1013.17
2018-04-13T12:07:01.899Z,1013.15
2018-04-13T12:08:01.889Z,1013.15